HSOB

El Obeid Airport

Al-Ubayyid, Sudan
METAR HSOB 171100Z 02014KT CAVOK 31/07 Q1013
Observed Flight Rules
Dec-17 @ 11:00 UTC (16 hours ago) Visual Flight Rules
Wind Visibility Clouds
20° at 14 knots 10,000+ meters
  • Clear skies
Temperatures Readings
Current 31°C / 88°F
Dewpoint 7°C / 45°F
Humidity 22%
Altimeter 29.91" Hg
Pressure 1013 hPa
Elevation 574
METAR HSOB 171100Z 02014KT CAVOK 31/07 Q1013
Observed Flight Rules
Dec-17 @ 11:00 UTC
(16 hours ago)
VFR
Wind Visibility
20° at 14 knots 10,000+ meters
Clouds
  • Clear skies
Temperature Dewpoint
31°C / 88°F 7°C / 45°F
Humidity Altimeter Pressure
22% 29.91" Hg 1013 hPa